Главная страница
METAR-TAF:

METAR-TAF

Аэропорты :

Вадсё, Норвегия

широта: 70-04N, долгота: 029-51E, высота над уровнем моря: 3 м

Текущие метеонаблюдения

Эта сводка был подготовлена 45 минут назад, в 05:50 UTC
Ветер 7 Узел от северо-северо-восточный
Температура 11°C
Влажность 94%
Давление 1004 hPa
Видимость 10 км и более
Отдельные облака на высоте 1500 фута
Рассеянная облачность на высоте 2100 фута
небольшие ливневые дожди

METAR: ENVD 210550Z 02007KT 9999 -SHRA SCT015 BKN021 11/10 Q1004

Время: 08:35 (06:35 UTC)

Прогноз

Эта сводка был подготовлена 1 час и 35 минут назад, в 05:00 UTC
Прогноз действительный с 21-го 06 UTC до 21-го 15 UTC
Ветер 5 Узел переменных направлений
Видимость 10 км и более
Отдельные облака на высоте 800 фута
Рассеянная облачность на высоте 2500 фута
небольшой дождь
временами
С 21-го 06 UTC до 21-го 15 UTC
Видимость: 4000 м
Рассеянная облачность на высоте 800 фута
дождь, Морось

TAF: ENVD 210500Z 2106/2115 VRB05KT 9999 -RA SCT008 BKN025 TEMPO 2106/2115 4000 RADZ BKN008

Метеонаблюдения и прогнозы для более 4000 аэропортов (сводки METAR и TAF).

Имеющиеся станции представлены на карте желтыми и красными точками.

Чтобы увидеть название станции, наведите на нее мышь.

Затем щелкните, чтобы увидеть метеонаблюдения и метеопрогнозы.

Управление картой: чтобы увеличить масштаб, щелкните зеленые кнопки с черным крестиком; чтобы уменьшить масштаб, щелкните зеленую кнопку с тире; для просмотра соседних карт щелкайте зеленые стрелки.


METAR-TAF: